createdAt,value
2022-12-18T00:01:30.322Z,11.35
2022-12-18T00:03:58.116Z,11.43
2022-12-18T00:06:28.168Z,11.13
2022-12-18T00:08:57.482Z,12.27
2022-12-18T00:11:28.467Z,12.18
2022-12-18T00:13:58.754Z,11.80
2022-12-18T00:16:34.216Z,10.77
2022-12-18T00:19:03.741Z,11.13
2022-12-18T00:21:34.275Z,11.13
2022-12-18T00:24:04.203Z,11.57
2022-12-18T00:26:34.466Z,10.50
2022-12-18T00:29:08.532Z,10.45
2022-12-18T00:31:35.999Z,11.20
2022-12-18T00:34:05.577Z,11.75
2022-12-18T00:36:38.623Z,10.38
2022-12-18T00:39:08.829Z,11.18
2022-12-18T00:41:57.220Z,12.07
2022-12-18T00:44:24.131Z,10.32
2022-12-18T00:46:53.962Z,11.07
2022-12-18T00:49:22.122Z,11.00
2022-12-18T00:51:49.333Z,12.57
2022-12-18T00:54:16.878Z,10.88
2022-12-18T00:56:50.684Z,11.25
2022-12-18T00:59:20.745Z,12.48
2022-12-18T01:01:53.083Z,11.70
2022-12-18T01:04:22.652Z,11.65
2022-12-18T01:06:54.293Z,11.95
2022-12-18T01:09:21.301Z,11.40
2022-12-18T01:11:50.674Z,11.63
2022-12-18T01:14:17.582Z,10.43
2022-12-18T01:16:49.542Z,10.32
2022-12-18T01:19:16.419Z,10.20
2022-12-18T01:21:45.446Z,10.68
2022-12-18T01:24:15.500Z,10.52
2022-12-18T01:26:42.487Z,11.35
2022-12-18T01:29:11.844Z,11.55
2022-12-18T01:31:38.858Z,10.38
2022-12-18T01:34:06.709Z,10.00
2022-12-18T01:36:36.823Z,8.95
2022-12-18T01:39:08.444Z,10.18
2022-12-18T01:41:54.663Z,9.63
2022-12-18T01:44:59.156Z,8.50
2022-12-18T01:47:46.999Z,8.85
2022-12-18T01:50:21.173Z,9.20
2022-12-18T01:52:59.910Z,8.73
2022-12-18T01:55:32.452Z,9.05
2022-12-18T01:58:01.768Z,8.75
2022-12-18T02:00:29.939Z,8.93
2022-12-18T02:02:57.906Z,9.73
2022-12-18T02:06:11.566Z,8.82
2022-12-18T02:08:54.252Z,11.05
2022-12-18T02:11:55.487Z,10.88
2022-12-18T02:14:45.738Z,9.73
2022-12-18T02:17:17.688Z,9.95
2022-12-18T02:20:12.403Z,11.23
2022-12-18T02:22:58.140Z,10.63
2022-12-18T02:26:01.315Z,9.70
2022-12-18T02:28:33.438Z,10.98
2022-12-18T02:31:04.133Z,11.27
2022-12-18T02:33:33.152Z,10.45
2022-12-18T02:36:01.685Z,11.77
2022-12-18T02:38:34.672Z,11.07
2022-12-18T02:41:03.656Z,10.32
2022-12-18T02:43:31.210Z,10.48
2022-12-18T02:46:01.692Z,10.35
2022-12-18T02:48:35.457Z,10.13
2022-12-18T02:51:35.925Z,10.13
2022-12-18T02:54:35.596Z,9.95
2022-12-18T02:57:17.743Z,9.98
2022-12-18T03:00:00.003Z,9.98
2022-12-18T03:02:47.321Z,9.77
2022-12-18T03:05:20.155Z,9.50
2022-12-18T03:07:54.624Z,11.02
2022-12-18T03:10:32.920Z,9.85
2022-12-18T03:13:09.663Z,11.13
2022-12-18T03:15:57.717Z,9.00
2022-12-18T03:18:54.859Z,9.55
2022-12-18T03:21:46.512Z,9.15
2022-12-18T03:24:13.721Z,9.60
2022-12-18T03:26:45.682Z,7.93
2022-12-18T03:29:28.088Z,9.48
2022-12-18T03:32:21.425Z,9.20
2022-12-18T03:34:51.234Z,8.75
2022-12-18T03:37:18.138Z,9.48
2022-12-18T03:39:48.512Z,9.93
2022-12-18T03:42:23.528Z,9.25
2022-12-18T03:45:22.334Z,8.88
2022-12-18T03:48:08.750Z,9.25
2022-12-18T03:50:39.378Z,9.13
2022-12-18T03:53:33.698Z,9.00
2022-12-18T03:56:03.403Z,8.90
2022-12-18T03:58:32.994Z,9.82
2022-12-18T04:01:07.402Z,9.30
2022-12-18T04:03:37.185Z,8.68
2022-12-18T04:06:06.093Z,8.45
2022-12-18T04:08:36.412Z,9.18
2022-12-18T04:11:04.641Z,8.57
2022-12-18T04:13:40.429Z,8.65
2022-12-18T04:16:08.165Z,9.00
2022-12-18T04:18:38.261Z,9.82
2022-12-18T04:21:05.359Z,9.73
2022-12-18T04:23:32.500Z,8.75
2022-12-18T04:25:59.585Z,9.55
2022-12-18T04:28:29.172Z,8.57
2022-12-18T04:30:58.311Z,7.82
2022-12-18T04:33:25.154Z,9.23
2022-12-18T04:35:52.026Z,7.47
2022-12-18T04:38:18.916Z,7.90
2022-12-18T04:40:46.165Z,7.13
2022-12-18T04:43:15.536Z,6.50
2022-12-18T04:45:42.406Z,6.90
2022-12-18T04:48:11.812Z,7.57
2022-12-18T04:50:39.565Z,7.07
2022-12-18T04:53:07.926Z,7.53
2022-12-18T04:55:37.488Z,7.63
2022-12-18T04:58:04.444Z,9.20
2022-12-18T05:00:31.294Z,8.07
2022-12-18T05:02:58.366Z,8.88
2022-12-18T05:05:28.103Z,7.85
2022-12-18T05:07:55.210Z,7.43
2022-12-18T05:10:22.087Z,7.32
2022-12-18T05:13:01.278Z,7.40
2022-12-18T05:15:32.772Z,7.95
2022-12-18T05:18:03.359Z,7.82
2022-12-18T05:20:32.872Z,8.57
2022-12-18T05:22:59.859Z,8.80
2022-12-18T05:25:29.306Z,6.82
2022-12-18T05:27:59.003Z,8.85
2022-12-18T05:30:28.605Z,7.40
2022-12-18T05:32:55.484Z,7.43
2022-12-18T05:35:22.417Z,8.07
2022-12-18T05:37:49.250Z,7.72
2022-12-18T05:40:16.208Z,8.50
2022-12-18T05:42:43.089Z,8.50
2022-12-18T05:45:10.366Z,8.07
2022-12-18T05:47:37.263Z,7.97
2022-12-18T05:50:07.873Z,8.40
2022-12-18T05:52:37.050Z,8.38
2022-12-18T05:55:10.225Z,8.45
2022-12-18T05:57:39.623Z,8.18
2022-12-18T06:00:09.523Z,7.78
2022-12-18T06:02:39.527Z,8.15
2022-12-18T06:05:06.939Z,9.35
2022-12-18T06:07:35.909Z,8.02
2022-12-18T06:10:05.903Z,8.10
2022-12-18T06:12:35.304Z,8.43
2022-12-18T06:15:02.185Z,8.27
2022-12-18T06:17:31.088Z,7.57
2022-12-18T06:19:58.159Z,8.05
2022-12-18T06:22:25.473Z,9.30
2022-12-18T06:24:54.726Z,8.88
2022-12-18T06:27:23.972Z,8.82
2022-12-18T06:29:50.821Z,9.50
2022-12-18T06:32:17.717Z,8.82
2022-12-18T06:34:44.657Z,8.90
2022-12-18T06:37:14.113Z,9.30
2022-12-18T06:39:40.948Z,8.93
2022-12-18T06:42:07.843Z,9.43
2022-12-18T06:44:34.709Z,9.88
2022-12-18T06:47:01.633Z,10.55
2022-12-18T06:49:30.626Z,10.88
2022-12-18T06:51:57.810Z,8.90
2022-12-18T06:54:26.919Z,8.70
2022-12-18T06:56:57.114Z,9.10
2022-12-18T06:59:23.995Z,9.25
2022-12-18T07:01:50.923Z,10.55
2022-12-18T07:04:20.915Z,9.05
2022-12-18T07:06:47.779Z,9.23
2022-12-18T07:09:16.753Z,10.10
2022-12-18T07:11:46.091Z,10.32
2022-12-18T07:14:12.957Z,9.10
2022-12-18T07:16:42.138Z,10.32
2022-12-18T07:19:09.221Z,8.98
2022-12-18T07:21:38.592Z,9.43
2022-12-18T07:24:10.475Z,8.80
2022-12-18T07:26:37.331Z,10.80
2022-12-18T07:29:04.150Z,11.75
2022-12-18T07:31:31.164Z,11.68
2022-12-18T07:33:58.253Z,10.98
2022-12-18T07:36:25.265Z,10.38
2022-12-18T07:38:53.804Z,10.88
2022-12-18T07:41:21.330Z,9.55
2022-12-18T07:43:49.001Z,10.18
2022-12-18T07:46:19.867Z,9.10
2022-12-18T07:48:49.961Z,10.45
2022-12-18T07:51:18.702Z,9.35
2022-12-18T07:53:45.684Z,9.65
2022-12-18T07:56:27.035Z,9.73
2022-12-18T07:58:57.913Z,10.25
2022-12-18T08:01:25.334Z,10.90
2022-12-18T08:03:54.478Z,12.75
2022-12-18T08:06:24.159Z,11.15
2022-12-18T08:08:58.698Z,9.88
2022-12-18T08:11:28.300Z,9.82
2022-12-18T08:13:56.124Z,10.65
2022-12-18T08:16:23.763Z,13.50
2022-12-18T08:18:53.159Z,11.13
2022-12-18T08:21:27.466Z,11.88
2022-12-18T08:23:57.167Z,10.20
2022-12-18T08:26:28.009Z,10.80
2022-12-18T08:28:57.282Z,9.80
2022-12-18T08:31:25.685Z,10.82
2022-12-18T08:33:54.032Z,11.80
2022-12-18T08:36:22.819Z,10.98
2022-12-18T08:38:50.250Z,12.10
2022-12-18T08:41:20.517Z,12.38
2022-12-18T08:44:11.009Z,10.27
2022-12-18T08:46:44.794Z,10.98
2022-12-18T08:49:13.175Z,10.63
2022-12-18T08:51:43.207Z,12.30
2022-12-18T08:54:14.645Z,11.65
2022-12-18T08:59:13.132Z,11.20
2022-12-18T09:01:44.516Z,11.77
2022-12-18T09:04:13.879Z,11.75
2022-12-18T09:06:43.555Z,11.70
2022-12-18T09:09:13.998Z,11.75
2022-12-18T09:11:40.977Z,11.63
2022-12-18T09:14:12.968Z,13.88
2022-12-18T09:16:40.107Z,13.60
2022-12-18T09:19:12.657Z,11.48
2022-12-18T09:21:47.769Z,13.00
2022-12-18T09:24:16.416Z,13.25
2022-12-18T09:26:47.124Z,12.30
2022-12-18T09:29:16.810Z,11.10
2022-12-18T09:31:46.183Z,11.63
2022-12-18T09:34:13.073Z,10.65
2022-12-18T09:36:40.229Z,10.88
2022-12-18T09:39:08.804Z,12.25
2022-12-18T09:41:58.724Z,11.90
2022-12-18T09:44:44.432Z,12.32
2022-12-18T09:47:37.795Z,11.00
2022-12-18T09:50:52.797Z,11.55
2022-12-18T09:53:27.840Z,10.45
2022-12-18T09:55:57.505Z,10.88
2022-12-18T09:58:48.516Z,12.27
2022-12-18T10:01:25.112Z,12.57
2022-12-18T10:03:55.655Z,12.38
2022-12-18T10:06:49.920Z,13.50
2022-12-18T10:09:47.150Z,13.15
2022-12-18T10:12:29.365Z,12.82
2022-12-18T10:15:39.505Z,12.75
2022-12-18T10:18:27.852Z,11.55
2022-12-18T10:21:03.367Z,12.82
2022-12-18T10:23:55.808Z,13.00
2022-12-18T10:26:22.910Z,13.13
2022-12-18T10:28:50.198Z,13.57
2022-12-18T10:31:24.747Z,14.23
2022-12-18T10:33:54.790Z,13.23
2022-12-18T10:36:25.581Z,13.18
2022-12-18T10:38:55.175Z,12.73
2022-12-18T10:41:24.097Z,11.98
2022-12-18T10:44:24.452Z,12.00
2022-12-18T10:47:13.154Z,10.80
2022-12-18T10:49:50.456Z,13.43
2022-12-18T10:52:21.405Z,13.30
2022-12-18T10:55:04.249Z,13.38
2022-12-18T10:57:39.623Z,12.50
2022-12-18T11:00:30.943Z,11.23
2022-12-18T11:02:58.865Z,13.50
2022-12-18T11:05:32.806Z,12.40
2022-12-18T11:08:01.766Z,11.93
2022-12-18T11:10:41.058Z,13.90
2022-12-18T11:13:22.271Z,13.43
2022-12-18T11:15:50.342Z,13.43
2022-12-18T11:18:33.082Z,14.40
2022-12-18T11:21:10.389Z,15.13
2022-12-18T11:23:53.591Z,13.02
2022-12-18T11:26:23.676Z,11.55
2022-12-18T11:29:09.718Z,12.00
2022-12-18T11:31:36.688Z,12.10
2022-12-18T11:36:55.644Z,10.82
2022-12-18T11:39:44.213Z,11.40
2022-12-18T11:42:24.795Z,12.63
2022-12-18T11:44:59.592Z,12.65
2022-12-18T11:47:49.029Z,11.65
2022-12-18T11:50:32.051Z,13.57
2022-12-18T11:53:04.196Z,13.13
2022-12-18T11:56:00.949Z,14.18
2022-12-18T11:59:22.540Z,11.68
2022-12-18T12:02:07.564Z,13.43
2022-12-18T12:05:28.841Z,13.43
2022-12-18T12:08:30.888Z,11.43
2022-12-18T12:11:39.582Z,11.93
2022-12-18T12:14:25.487Z,11.98
2022-12-18T12:17:22.768Z,11.65
2022-12-18T12:20:03.596Z,11.93
2022-12-18T12:23:27.450Z,12.13
2022-12-18T12:26:26.901Z,10.52
2022-12-18T12:29:41.010Z,11.82
2022-12-18T12:32:34.126Z,12.85
2022-12-18T12:35:15.496Z,10.90
2022-12-18T12:38:14.877Z,11.25
2022-12-18T12:41:00.510Z,13.88
2022-12-18T12:43:50.542Z,14.57
2022-12-18T12:46:22.241Z,13.40
2022-12-18T12:48:58.081Z,13.52
2022-12-18T12:51:31.128Z,13.00
2022-12-18T12:54:02.708Z,15.55
2022-12-18T12:57:04.337Z,14.18
2022-12-18T13:00:11.250Z,12.65
2022-12-18T13:03:09.428Z,11.70
2022-12-18T13:05:54.752Z,11.88
2022-12-18T13:08:26.633Z,11.52
2022-12-18T13:11:16.655Z,15.52
2022-12-18T13:13:56.759Z,13.93
2022-12-18T13:16:28.213Z,12.40
2022-12-18T13:18:59.919Z,12.53
2022-12-18T13:21:38.598Z,15.50
2022-12-18T13:24:30.598Z,14.48
2022-12-18T13:26:57.558Z,15.07
2022-12-18T13:29:47.471Z,14.40
2022-12-18T13:32:26.788Z,13.77
2022-12-18T13:35:40.260Z,13.05
2022-12-18T13:38:37.360Z,12.73
2022-12-18T13:41:29.215Z,11.90
2022-12-18T13:44:13.038Z,14.20
2022-12-18T13:46:48.588Z,15.00
2022-12-18T13:49:17.962Z,13.45
2022-12-18T13:51:53.695Z,14.00
2022-12-18T13:54:36.733Z,11.80
2022-12-18T13:57:07.300Z,12.23
2022-12-18T13:59:39.840Z,12.20
2022-12-18T14:02:22.003Z,13.35
2022-12-18T14:04:50.309Z,14.02
2022-12-18T14:07:34.020Z,12.07
2022-12-18T14:10:33.906Z,12.27
2022-12-18T14:13:07.150Z,12.02
2022-12-18T14:15:39.598Z,11.73
2022-12-18T14:18:33.413Z,11.05
2022-12-18T14:21:06.274Z,12.05
2022-12-18T14:23:43.466Z,12.57
2022-12-18T14:26:32.376Z,12.57
2022-12-18T14:29:22.396Z,12.85
2022-12-18T14:32:17.573Z,11.90
2022-12-18T14:34:56.897Z,12.93
2022-12-18T14:37:29.663Z,12.82
2022-12-18T14:40:14.073Z,11.48
2022-12-18T14:42:46.167Z,11.77
2022-12-18T14:45:45.148Z,12.38
2022-12-18T14:48:46.533Z,11.98
2022-12-18T14:51:22.179Z,13.68
2022-12-18T14:53:56.612Z,14.77
2022-12-18T14:56:33.025Z,12.82
2022-12-18T14:59:07.730Z,12.55
2022-12-18T15:01:39.322Z,12.57
2022-12-18T15:04:32.954Z,14.55
2022-12-18T15:07:09.427Z,11.98
2022-12-18T15:09:36.669Z,13.02
2022-12-18T15:12:04.089Z,11.93
2022-12-18T15:14:42.292Z,14.90
2022-12-18T15:17:26.893Z,12.50
2022-12-18T15:20:01.679Z,15.02
2022-12-18T15:22:36.146Z,12.85
2022-12-18T15:25:35.800Z,13.27
2022-12-18T15:28:04.476Z,13.18
2022-12-18T15:30:33.760Z,13.75
2022-12-18T15:33:27.734Z,11.68
2022-12-18T15:36:05.225Z,12.98
2022-12-18T15:38:32.528Z,14.65
2022-12-18T15:41:00.869Z,13.88
2022-12-18T15:43:37.562Z,15.18
2022-12-18T15:46:15.638Z,14.70
2022-12-18T15:48:55.514Z,15.32
2022-12-18T15:51:33.826Z,14.07
2022-12-18T15:54:05.005Z,12.40
2022-12-18T15:56:53.541Z,11.80
2022-12-18T15:59:22.133Z,13.98
2022-12-18T16:01:55.269Z,12.60
2022-12-18T16:04:25.743Z,12.15
2022-12-18T16:07:14.835Z,16.52
2022-12-18T16:09:42.971Z,14.07
2022-12-18T16:12:19.356Z,14.60
2022-12-18T16:14:49.232Z,14.40
2022-12-18T16:17:16.699Z,12.88
2022-12-18T16:19:43.755Z,14.98
2022-12-18T16:22:28.903Z,13.45
2022-12-18T16:24:57.681Z,13.07
2022-12-18T16:27:28.062Z,12.65
2022-12-18T16:29:54.968Z,12.75
2022-12-18T16:32:23.706Z,13.95
2022-12-18T16:34:51.703Z,14.18
2022-12-18T16:37:18.644Z,15.25
2022-12-18T16:39:46.039Z,15.50
2022-12-18T16:42:21.079Z,14.38
2022-12-18T16:44:49.997Z,14.13
2022-12-18T16:47:17.911Z,13.07
2022-12-18T16:49:46.194Z,14.55
2022-12-18T16:52:14.270Z,15.18
2022-12-18T16:54:41.359Z,13.05
2022-12-18T16:57:13.272Z,13.60
2022-12-18T16:59:42.719Z,13.80
2022-12-18T17:02:23.413Z,13.57
2022-12-18T17:04:54.052Z,13.15
2022-12-18T17:07:21.120Z,13.98
2022-12-18T17:09:48.786Z,13.40
2022-12-18T17:12:15.665Z,12.38
2022-12-18T17:14:42.632Z,13.95
2022-12-18T17:17:24.919Z,12.43
2022-12-18T17:19:55.042Z,14.07
2022-12-18T17:22:23.319Z,13.18
2022-12-18T17:24:50.331Z,12.93
2022-12-18T17:27:17.197Z,13.40
2022-12-18T17:29:48.354Z,14.65
2022-12-18T17:32:17.339Z,13.55
2022-12-18T17:34:46.559Z,13.43
2022-12-18T17:37:16.757Z,14.20
2022-12-18T17:39:44.457Z,15.23
2022-12-18T17:42:15.960Z,14.75
2022-12-18T17:44:44.022Z,13.93
2022-12-18T17:47:12.962Z,14.18
2022-12-18T17:49:40.065Z,14.82
2022-12-18T17:52:06.951Z,14.23
2022-12-18T17:54:33.864Z,13.73
2022-12-18T17:57:00.717Z,13.57
2022-12-18T17:59:29.919Z,14.90
2022-12-18T18:01:56.976Z,13.95
2022-12-18T18:04:26.712Z,15.82
2022-12-18T18:06:55.755Z,14.82
2022-12-18T18:09:24.989Z,13.90
2022-12-18T18:12:10.312Z,14.43
2022-12-18T18:14:37.395Z,14.00
2022-12-18T18:17:05.262Z,14.77
2022-12-18T18:19:33.523Z,16.27
2022-12-18T18:22:01.499Z,15.18
2022-12-18T18:24:30.109Z,16.23
2022-12-18T18:27:02.117Z,12.52
2022-12-18T18:29:31.792Z,14.80
2022-12-18T18:31:59.703Z,13.85
2022-12-18T18:34:32.613Z,12.85
2022-12-18T18:37:01.527Z,14.52
2022-12-18T18:39:29.272Z,13.40
2022-12-18T18:41:56.373Z,13.75
2022-12-18T18:44:26.466Z,15.00
2022-12-18T18:46:59.446Z,14.45
2022-12-18T18:49:31.388Z,12.43
2022-12-18T18:52:02.701Z,14.23
2022-12-18T18:54:31.101Z,14.43
2022-12-18T18:59:46.337Z,13.52
2022-12-18T19:02:14.962Z,14.50
2022-12-18T19:04:46.065Z,15.82
2022-12-18T19:07:29.765Z,14.85
2022-12-18T19:10:03.902Z,17.48
2022-12-18T19:12:49.652Z,16.38
2022-12-18T19:15:19.273Z,14.00
2022-12-18T19:17:48.811Z,14.82
2022-12-18T19:20:16.142Z,15.20
2022-12-18T19:22:43.218Z,15.05
2022-12-18T19:25:13.894Z,14.85
2022-12-18T19:27:40.858Z,14.82
2022-12-18T19:30:08.952Z,14.68
2022-12-18T19:32:38.992Z,15.50
2022-12-18T19:35:07.461Z,14.13
2022-12-18T19:37:35.671Z,15.30
2022-12-18T19:40:06.105Z,13.38
2022-12-18T19:42:40.879Z,15.80
2022-12-18T19:45:08.680Z,12.63
2022-12-18T19:47:35.616Z,14.70
2022-12-18T19:50:08.425Z,15.40
2022-12-18T19:52:35.735Z,14.85
2022-12-18T19:55:09.474Z,16.08
2022-12-18T19:57:39.613Z,15.85
2022-12-18T20:00:07.656Z,16.50
2022-12-18T20:02:37.147Z,17.75
2022-12-18T20:05:09.695Z,16.27
2022-12-18T20:07:37.193Z,16.00
2022-12-18T20:10:12.015Z,15.73
2022-12-18T20:12:44.468Z,15.63
2022-12-18T20:15:11.501Z,16.63
2022-12-18T20:17:43.072Z,17.20
2022-12-18T20:20:11.284Z,13.95
2022-12-18T20:22:38.864Z,16.38
2022-12-18T20:25:06.923Z,15.40
2022-12-18T20:27:33.841Z,15.27
2022-12-18T20:30:00.787Z,15.68
2022-12-18T20:32:29.603Z,16.08
2022-12-18T20:35:04.032Z,16.27
2022-12-18T20:37:33.309Z,16.60
2022-12-18T20:40:00.996Z,16.80
2022-12-18T20:42:28.759Z,14.90
2022-12-18T20:44:58.325Z,16.40
2022-12-18T20:47:25.172Z,15.27
2022-12-18T20:49:52.321Z,15.50
2022-12-18T20:52:19.246Z,15.20
2022-12-18T20:54:47.468Z,16.38
2022-12-18T20:57:14.803Z,16.05
2022-12-18T20:59:48.140Z,15.13
2022-12-18T21:02:16.591Z,17.23
2022-12-18T21:04:43.641Z,14.80
2022-12-18T21:07:10.475Z,16.00
2022-12-18T21:09:39.921Z,16.50
2022-12-18T21:12:40.261Z,15.18
2022-12-18T21:15:13.450Z,15.75
2022-12-18T21:17:43.401Z,14.65
2022-12-18T21:20:18.012Z,15.93
2022-12-18T21:22:45.630Z,15.80
2022-12-18T21:25:14.638Z,14.80
2022-12-18T21:27:41.528Z,14.45
2022-12-18T21:30:09.201Z,15.55
2022-12-18T21:32:36.272Z,15.82
2022-12-18T21:35:03.540Z,16.58
2022-12-18T21:37:30.425Z,16.45
2022-12-18T21:39:57.334Z,16.35
2022-12-18T21:42:43.156Z,17.15
2022-12-18T21:45:12.995Z,15.95
2022-12-18T21:47:41.005Z,15.70
2022-12-18T21:50:08.365Z,15.68
2022-12-18T21:52:35.414Z,17.17
2022-12-18T21:55:08.938Z,15.63
2022-12-18T21:57:40.889Z,16.15
2022-12-18T22:00:18.610Z,15.07
2022-12-18T22:02:47.142Z,13.45
2022-12-18T22:05:16.887Z,13.82
2022-12-18T22:07:43.828Z,14.73
2022-12-18T22:10:10.752Z,14.88
2022-12-18T22:12:43.172Z,14.93
2022-12-18T22:15:17.627Z,20.65
2022-12-18T22:17:59.916Z,24.80
2022-12-18T22:20:29.747Z,19.52
2022-12-18T22:23:06.086Z,19.77
2022-12-18T22:25:35.304Z,20.27
2022-12-18T22:28:25.496Z,21.48
2022-12-18T22:30:55.983Z,17.73
2022-12-18T22:33:28.628Z,21.08
2022-12-18T22:35:55.580Z,18.15
2022-12-18T22:38:22.465Z,29.23
2022-12-18T22:40:49.266Z,22.20
2022-12-18T22:43:16.224Z,17.63
2022-12-18T22:45:47.250Z,18.02
2022-12-18T22:48:14.367Z,16.05
2022-12-18T22:50:42.735Z,15.80
2022-12-18T22:53:10.743Z,15.77
2022-12-18T22:55:40.012Z,16.92
2022-12-18T22:58:06.858Z,15.85
2022-12-18T23:00:35.888Z,14.77
2022-12-18T23:03:02.948Z,15.40
2022-12-18T23:05:32.818Z,15.50
2022-12-18T23:07:59.731Z,14.32
2022-12-18T23:10:30.038Z,16.40
2022-12-18T23:12:59.413Z,15.63
2022-12-18T23:15:28.104Z,15.57
2022-12-18T23:17:56.813Z,16.27
2022-12-18T23:20:26.943Z,15.82
2022-12-18T23:22:54.195Z,14.80
2022-12-18T23:25:21.081Z,15.35
2022-12-18T23:27:48.063Z,16.30
2022-12-18T23:30:17.258Z,14.93
2022-12-18T23:32:44.121Z,15.73
2022-12-18T23:35:10.949Z,15.27
2022-12-18T23:38:00.175Z,15.98
2022-12-18T23:40:29.994Z,15.43
2022-12-18T23:42:57.066Z,14.30
2022-12-18T23:45:23.887Z,14.70
2022-12-18T23:47:51.414Z,15.68
2022-12-18T23:50:18.459Z,15.60
2022-12-18T23:52:47.751Z,13.38
2022-12-18T23:55:14.862Z,15.55
2022-12-18T23:57:41.723Z,14.60
